sensor_id;sensor_type;location;lat;lon;timestamp;P1;durP1;ratioP1;P2;durP2;ratioP2
17850;SDS011;9051;51.548;14.348;2022-12-20T00:00:26;23.50;;;15.03;;
17850;SDS011;9051;51.548;14.348;2022-12-20T00:02:58;26.33;;;15.80;;
17850;SDS011;9051;51.548;14.348;2022-12-20T00:05:31;25.87;;;15.47;;
17850;SDS011;9051;51.548;14.348;2022-12-20T00:08:08;24.90;;;16.07;;
17850;SDS011;9051;51.548;14.348;2022-12-20T00:10:41;26.57;;;15.00;;
17850;SDS011;9051;51.548;14.348;2022-12-20T00:13:14;26.00;;;15.57;;
17850;SDS011;9051;51.548;14.348;2022-12-20T00:15:46;26.23;;;15.17;;
17850;SDS011;9051;51.548;14.348;2022-12-20T00:18:18;25.10;;;15.43;;
17850;SDS011;9051;51.548;14.348;2022-12-20T00:20:56;25.87;;;14.80;;
17850;SDS011;9051;51.548;14.348;2022-12-20T00:23:30;29.43;;;15.97;;
17850;SDS011;9051;51.548;14.348;2022-12-20T00:26:03;29.63;;;15.93;;
17850;SDS011;9051;51.548;14.348;2022-12-20T00:28:36;29.97;;;16.07;;
17850;SDS011;9051;51.548;14.348;2022-12-20T00:31:10;27.20;;;16.53;;
17850;SDS011;9051;51.548;14.348;2022-12-20T00:33:44;29.33;;;15.73;;
17850;SDS011;9051;51.548;14.348;2022-12-20T00:36:18;30.93;;;16.53;;
17850;SDS011;9051;51.548;14.348;2022-12-20T00:38:53;28.47;;;15.57;;
17850;SDS011;9051;51.548;14.348;2022-12-20T00:41:27;26.93;;;15.47;;
17850;SDS011;9051;51.548;14.348;2022-12-20T00:44:00;28.60;;;15.60;;
17850;SDS011;9051;51.548;14.348;2022-12-20T00:46:33;33.53;;;16.63;;
17850;SDS011;9051;51.548;14.348;2022-12-20T00:49:05;27.30;;;14.87;;
17850;SDS011;9051;51.548;14.348;2022-12-20T00:51:37;26.57;;;15.53;;
17850;SDS011;9051;51.548;14.348;2022-12-20T00:54:10;30.47;;;16.33;;
17850;SDS011;9051;51.548;14.348;2022-12-20T00:56:42;26.17;;;15.73;;
17850;SDS011;9051;51.548;14.348;2022-12-20T00:59:14;30.20;;;16.53;;
17850;SDS011;9051;51.548;14.348;2022-12-20T01:01:46;25.00;;;14.97;;
17850;SDS011;9051;51.548;14.348;2022-12-20T01:04:19;28.67;;;16.50;;
17850;SDS011;9051;51.548;14.348;2022-12-20T01:06:51;31.37;;;16.60;;
17850;SDS011;9051;51.548;14.348;2022-12-20T01:09:24;30.73;;;17.03;;
17850;SDS011;9051;51.548;14.348;2022-12-20T01:11:56;31.17;;;15.83;;
17850;SDS011;9051;51.548;14.348;2022-12-20T01:14:28;29.53;;;16.60;;
17850;SDS011;9051;51.548;14.348;2022-12-20T01:17:00;23.90;;;14.73;;
17850;SDS011;9051;51.548;14.348;2022-12-20T01:19:32;25.57;;;14.93;;
17850;SDS011;9051;51.548;14.348;2022-12-20T01:22:04;27.27;;;15.83;;
17850;SDS011;9051;51.548;14.348;2022-12-20T01:24:37;27.53;;;15.30;;
17850;SDS011;9051;51.548;14.348;2022-12-20T01:27:09;26.50;;;15.77;;
17850;SDS011;9051;51.548;14.348;2022-12-20T01:29:40;30.03;;;16.53;;
17850;SDS011;9051;51.548;14.348;2022-12-20T01:32:12;27.97;;;15.40;;
17850;SDS011;9051;51.548;14.348;2022-12-20T01:34:44;27.40;;;15.07;;
17850;SDS011;9051;51.548;14.348;2022-12-20T01:37:16;26.57;;;15.40;;
17850;SDS011;9051;51.548;14.348;2022-12-20T01:39:50;26.93;;;15.70;;
17850;SDS011;9051;51.548;14.348;2022-12-20T01:42:22;26.93;;;15.17;;
17850;SDS011;9051;51.548;14.348;2022-12-20T01:44:55;26.57;;;15.33;;
17850;SDS011;9051;51.548;14.348;2022-12-20T01:47:30;24.90;;;15.10;;
17850;SDS011;9051;51.548;14.348;2022-12-20T01:50:05;26.50;;;15.23;;
17850;SDS011;9051;51.548;14.348;2022-12-20T01:52:40;28.40;;;15.27;;
17850;SDS011;9051;51.548;14.348;2022-12-20T01:55:17;26.97;;;16.23;;
17850;SDS011;9051;51.548;14.348;2022-12-20T01:57:53;25.43;;;14.93;;
17850;SDS011;9051;51.548;14.348;2022-12-20T02:00:29;24.40;;;15.77;;
17850;SDS011;9051;51.548;14.348;2022-12-20T02:03:03;26.20;;;14.73;;
17850;SDS011;9051;51.548;14.348;2022-12-20T02:05:38;27.23;;;15.53;;
17850;SDS011;9051;51.548;14.348;2022-12-20T02:08:12;25.07;;;15.63;;
17850;SDS011;9051;51.548;14.348;2022-12-20T02:10:53;27.73;;;14.70;;
17850;SDS011;9051;51.548;14.348;2022-12-20T02:13:36;27.97;;;15.00;;
17850;SDS011;9051;51.548;14.348;2022-12-20T02:16:16;25.87;;;14.33;;
17850;SDS011;9051;51.548;14.348;2022-12-20T02:18:59;26.03;;;15.47;;
17850;SDS011;9051;51.548;14.348;2022-12-20T02:21:39;25.33;;;14.23;;
17850;SDS011;9051;51.548;14.348;2022-12-20T02:24:22;25.87;;;15.03;;
17850;SDS011;9051;51.548;14.348;2022-12-20T02:30:15;27.90;;;15.63;;
17850;SDS011;9051;51.548;14.348;2022-12-20T02:32:51;22.93;;;14.10;;
17850;SDS011;9051;51.548;14.348;2022-12-20T02:35:30;27.70;;;15.67;;
17850;SDS011;9051;51.548;14.348;2022-12-20T02:38:04;28.57;;;15.30;;
17850;SDS011;9051;51.548;14.348;2022-12-20T02:40:52;25.43;;;14.67;;
17850;SDS011;9051;51.548;14.348;2022-12-20T02:43:26;25.27;;;15.63;;
17850;SDS011;9051;51.548;14.348;2022-12-20T02:46:23;25.67;;;15.33;;
17850;SDS011;9051;51.548;14.348;2022-12-20T02:48:58;25.93;;;15.57;;
17850;SDS011;9051;51.548;14.348;2022-12-20T02:51:34;26.73;;;15.57;;
17850;SDS011;9051;51.548;14.348;2022-12-20T02:54:07;25.43;;;15.07;;
17850;SDS011;9051;51.548;14.348;2022-12-20T02:56:40;25.17;;;15.27;;
17850;SDS011;9051;51.548;14.348;2022-12-20T02:59:16;25.13;;;14.57;;
17850;SDS011;9051;51.548;14.348;2022-12-20T03:01:53;22.43;;;14.60;;
17850;SDS011;9051;51.548;14.348;2022-12-20T03:04:28;25.97;;;15.10;;
17850;SDS011;9051;51.548;14.348;2022-12-20T03:07:03;22.87;;;14.30;;
17850;SDS011;9051;51.548;14.348;2022-12-20T03:09:37;24.83;;;14.90;;
17850;SDS011;9051;51.548;14.348;2022-12-20T03:12:11;26.53;;;16.17;;
17850;SDS011;9051;51.548;14.348;2022-12-20T03:14:45;28.00;;;15.63;;
17850;SDS011;9051;51.548;14.348;2022-12-20T03:17:19;28.83;;;15.30;;
17850;SDS011;9051;51.548;14.348;2022-12-20T03:19:51;25.07;;;15.03;;
17850;SDS011;9051;51.548;14.348;2022-12-20T03:22:23;26.70;;;15.93;;
17850;SDS011;9051;51.548;14.348;2022-12-20T03:24:56;25.73;;;14.20;;
17850;SDS011;9051;51.548;14.348;2022-12-20T03:27:28;26.57;;;14.67;;
17850;SDS011;9051;51.548;14.348;2022-12-20T03:30:02;26.00;;;15.00;;
17850;SDS011;9051;51.548;14.348;2022-12-20T03:32:39;27.17;;;14.70;;
17850;SDS011;9051;51.548;14.348;2022-12-20T03:35:12;24.13;;;14.43;;
17850;SDS011;9051;51.548;14.348;2022-12-20T03:37:45;26.67;;;15.87;;
17850;SDS011;9051;51.548;14.348;2022-12-20T03:40:17;26.27;;;15.73;;
17850;SDS011;9051;51.548;14.348;2022-12-20T03:42:49;24.53;;;15.20;;
17850;SDS011;9051;51.548;14.348;2022-12-20T03:45:21;28.73;;;15.33;;
17850;SDS011;9051;51.548;14.348;2022-12-20T03:47:55;24.50;;;14.53;;
17850;SDS011;9051;51.548;14.348;2022-12-20T03:50:30;29.20;;;15.90;;
17850;SDS011;9051;51.548;14.348;2022-12-20T03:53:04;29.20;;;16.10;;
17850;SDS011;9051;51.548;14.348;2022-12-20T03:55:37;27.10;;;15.37;;
17850;SDS011;9051;51.548;14.348;2022-12-20T03:58:08;27.43;;;15.77;;
17850;SDS011;9051;51.548;14.348;2022-12-20T04:00:42;28.43;;;14.97;;
17850;SDS011;9051;51.548;14.348;2022-12-20T04:03:35;24.20;;;14.87;;
17850;SDS011;9051;51.548;14.348;2022-12-20T04:06:07;25.07;;;15.23;;
17850;SDS011;9051;51.548;14.348;2022-12-20T04:08:39;29.00;;;14.60;;
17850;SDS011;9051;51.548;14.348;2022-12-20T04:11:13;25.97;;;14.47;;
17850;SDS011;9051;51.548;14.348;2022-12-20T04:14:10;27.17;;;15.20;;
17850;SDS011;9051;51.548;14.348;2022-12-20T04:16:42;25.10;;;14.97;;
17850;SDS011;9051;51.548;14.348;2022-12-20T04:19:16;27.17;;;15.30;;
17850;SDS011;9051;51.548;14.348;2022-12-20T04:21:50;23.80;;;14.97;;
17850;SDS011;9051;51.548;14.348;2022-12-20T04:24:25;25.90;;;15.07;;
17850;SDS011;9051;51.548;14.348;2022-12-20T04:27:13;26.37;;;14.87;;
17850;SDS011;9051;51.548;14.348;2022-12-20T04:29:46;25.70;;;15.33;;
17850;SDS011;9051;51.548;14.348;2022-12-20T04:32:21;25.83;;;14.83;;
17850;SDS011;9051;51.548;14.348;2022-12-20T04:34:54;24.20;;;13.87;;
17850;SDS011;9051;51.548;14.348;2022-12-20T04:37:26;24.93;;;15.03;;
17850;SDS011;9051;51.548;14.348;2022-12-20T04:40:00;25.53;;;14.93;;
17850;SDS011;9051;51.548;14.348;2022-12-20T04:42:58;25.67;;;15.00;;
17850;SDS011;9051;51.548;14.348;2022-12-20T04:45:30;24.43;;;15.00;;
17850;SDS011;9051;51.548;14.348;2022-12-20T04:48:02;21.97;;;13.83;;
17850;SDS011;9051;51.548;14.348;2022-12-20T04:50:42;25.70;;;14.77;;
17850;SDS011;9051;51.548;14.348;2022-12-20T04:53:18;27.60;;;15.30;;
17850;SDS011;9051;51.548;14.348;2022-12-20T04:56:08;25.77;;;14.93;;
17850;SDS011;9051;51.548;14.348;2022-12-20T04:58:40;28.23;;;15.67;;
17850;SDS011;9051;51.548;14.348;2022-12-20T05:01:13;27.00;;;15.53;;
17850;SDS011;9051;51.548;14.348;2022-12-20T05:03:51;28.23;;;14.80;;
17850;SDS011;9051;51.548;14.348;2022-12-20T05:06:25;26.50;;;14.67;;
17850;SDS011;9051;51.548;14.348;2022-12-20T05:08:57;24.23;;;14.50;;
17850;SDS011;9051;51.548;14.348;2022-12-20T05:11:30;25.97;;;14.83;;
17850;SDS011;9051;51.548;14.348;2022-12-20T05:14:02;25.80;;;14.87;;
17850;SDS011;9051;51.548;14.348;2022-12-20T05:16:34;25.77;;;14.60;;
17850;SDS011;9051;51.548;14.348;2022-12-20T05:19:06;27.27;;;15.13;;
17850;SDS011;9051;51.548;14.348;2022-12-20T05:21:44;27.53;;;14.70;;
17850;SDS011;9051;51.548;14.348;2022-12-20T05:24:34;27.40;;;15.43;;
17850;SDS011;9051;51.548;14.348;2022-12-20T05:27:35;26.83;;;14.87;;
17850;SDS011;9051;51.548;14.348;2022-12-20T05:30:07;27.83;;;15.70;;
17850;SDS011;9051;51.548;14.348;2022-12-20T05:32:40;26.47;;;15.27;;
17850;SDS011;9051;51.548;14.348;2022-12-20T05:35:13;28.03;;;15.07;;
17850;SDS011;9051;51.548;14.348;2022-12-20T05:37:46;28.30;;;15.70;;
17850;SDS011;9051;51.548;14.348;2022-12-20T05:40:21;29.63;;;16.53;;
17850;SDS011;9051;51.548;14.348;2022-12-20T05:42:54;26.33;;;16.13;;
17850;SDS011;9051;51.548;14.348;2022-12-20T05:45:33;28.30;;;14.70;;
17850;SDS011;9051;51.548;14.348;2022-12-20T05:48:10;29.93;;;16.13;;
17850;SDS011;9051;51.548;14.348;2022-12-20T05:50:44;26.77;;;15.67;;
17850;SDS011;9051;51.548;14.348;2022-12-20T05:53:44;26.50;;;15.33;;
17850;SDS011;9051;51.548;14.348;2022-12-20T05:56:18;29.00;;;16.10;;
17850;SDS011;9051;51.548;14.348;2022-12-20T05:58:52;27.00;;;15.87;;
17850;SDS011;9051;51.548;14.348;2022-12-20T06:01:24;28.73;;;16.13;;
17850;SDS011;9051;51.548;14.348;2022-12-20T06:04:00;26.70;;;15.20;;
17850;SDS011;9051;51.548;14.348;2022-12-20T06:06:33;26.60;;;15.10;;
17850;SDS011;9051;51.548;14.348;2022-12-20T06:09:06;27.10;;;15.53;;
17850;SDS011;9051;51.548;14.348;2022-12-20T06:11:45;24.60;;;15.70;;
17850;SDS011;9051;51.548;14.348;2022-12-20T06:14:18;28.70;;;15.83;;
17850;SDS011;9051;51.548;14.348;2022-12-20T06:16:51;25.20;;;15.30;;
17850;SDS011;9051;51.548;14.348;2022-12-20T06:19:23;28.70;;;15.87;;
17850;SDS011;9051;51.548;14.348;2022-12-20T06:21:57;26.87;;;15.67;;
17850;SDS011;9051;51.548;14.348;2022-12-20T06:24:50;27.03;;;15.13;;
17850;SDS011;9051;51.548;14.348;2022-12-20T06:27:26;27.10;;;16.13;;
17850;SDS011;9051;51.548;14.348;2022-12-20T06:30:11;28.07;;;15.27;;
17850;SDS011;9051;51.548;14.348;2022-12-20T06:33:03;28.20;;;16.87;;
17850;SDS011;9051;51.548;14.348;2022-12-20T06:35:35;27.43;;;15.87;;
17850;SDS011;9051;51.548;14.348;2022-12-20T06:38:08;25.63;;;14.67;;
17850;SDS011;9051;51.548;14.348;2022-12-20T06:40:42;24.50;;;15.70;;
17850;SDS011;9051;51.548;14.348;2022-12-20T06:43:14;24.97;;;15.47;;
17850;SDS011;9051;51.548;14.348;2022-12-20T06:45:47;28.57;;;15.80;;
17850;SDS011;9051;51.548;14.348;2022-12-20T06:48:19;25.90;;;15.43;;
17850;SDS011;9051;51.548;14.348;2022-12-20T06:50:52;25.60;;;15.13;;
17850;SDS011;9051;51.548;14.348;2022-12-20T06:53:25;26.60;;;15.97;;
17850;SDS011;9051;51.548;14.348;2022-12-20T06:55:58;25.70;;;14.90;;
17850;SDS011;9051;51.548;14.348;2022-12-20T06:58:30;28.87;;;15.23;;
17850;SDS011;9051;51.548;14.348;2022-12-20T07:01:02;25.53;;;14.57;;
17850;SDS011;9051;51.548;14.348;2022-12-20T07:03:34;26.87;;;14.63;;
17850;SDS011;9051;51.548;14.348;2022-12-20T07:06:06;24.63;;;14.50;;
17850;SDS011;9051;51.548;14.348;2022-12-20T07:08:38;25.07;;;14.73;;
17850;SDS011;9051;51.548;14.348;2022-12-20T07:11:11;24.00;;;14.60;;
17850;SDS011;9051;51.548;14.348;2022-12-20T07:13:43;27.30;;;14.87;;
17850;SDS011;9051;51.548;14.348;2022-12-20T07:16:15;25.80;;;15.43;;
17850;SDS011;9051;51.548;14.348;2022-12-20T07:18:48;27.97;;;15.83;;
17850;SDS011;9051;51.548;14.348;2022-12-20T07:21:20;27.00;;;14.90;;
17850;SDS011;9051;51.548;14.348;2022-12-20T07:23:53;27.03;;;14.70;;
17850;SDS011;9051;51.548;14.348;2022-12-20T07:26:27;28.60;;;15.83;;
17850;SDS011;9051;51.548;14.348;2022-12-20T07:28:59;26.40;;;15.83;;
17850;SDS011;9051;51.548;14.348;2022-12-20T07:31:31;26.47;;;15.13;;
17850;SDS011;9051;51.548;14.348;2022-12-20T07:34:03;26.90;;;15.63;;
17850;SDS011;9051;51.548;14.348;2022-12-20T07:36:34;23.10;;;14.03;;
17850;SDS011;9051;51.548;14.348;2022-12-20T07:39:06;24.83;;;14.97;;
17850;SDS011;9051;51.548;14.348;2022-12-20T07:41:40;27.87;;;15.93;;
17850;SDS011;9051;51.548;14.348;2022-12-20T07:44:18;26.13;;;15.17;;
17850;SDS011;9051;51.548;14.348;2022-12-20T07:46:50;24.77;;;15.90;;
17850;SDS011;9051;51.548;14.348;2022-12-20T07:49:22;26.80;;;15.47;;
17850;SDS011;9051;51.548;14.348;2022-12-20T07:51:54;24.73;;;15.17;;
17850;SDS011;9051;51.548;14.348;2022-12-20T07:54:30;27.27;;;15.57;;
17850;SDS011;9051;51.548;14.348;2022-12-20T07:57:05;25.67;;;15.47;;
17850;SDS011;9051;51.548;14.348;2022-12-20T07:59:44;26.30;;;15.20;;
17850;SDS011;9051;51.548;14.348;2022-12-20T08:02:20;23.40;;;14.60;;
17850;SDS011;9051;51.548;14.348;2022-12-20T08:04:55;25.00;;;14.97;;
17850;SDS011;9051;51.548;14.348;2022-12-20T08:07:28;27.03;;;15.80;;
17850;SDS011;9051;51.548;14.348;2022-12-20T08:10:01;24.60;;;14.93;;
17850;SDS011;9051;51.548;14.348;2022-12-20T08:12:34;24.83;;;14.97;;
17850;SDS011;9051;51.548;14.348;2022-12-20T08:15:07;25.60;;;15.50;;
17850;SDS011;9051;51.548;14.348;2022-12-20T08:17:40;26.83;;;16.00;;
17850;SDS011;9051;51.548;14.348;2022-12-20T08:20:12;28.27;;;14.77;;
17850;SDS011;9051;51.548;14.348;2022-12-20T08:22:44;27.40;;;15.90;;
17850;SDS011;9051;51.548;14.348;2022-12-20T08:25:16;23.77;;;14.67;;
17850;SDS011;9051;51.548;14.348;2022-12-20T08:27:49;27.20;;;15.10;;
17850;SDS011;9051;51.548;14.348;2022-12-20T08:30:22;25.57;;;14.80;;
17850;SDS011;9051;51.548;14.348;2022-12-20T08:32:54;27.10;;;15.40;;
17850;SDS011;9051;51.548;14.348;2022-12-20T08:35:26;27.70;;;15.27;;
17850;SDS011;9051;51.548;14.348;2022-12-20T08:37:58;29.70;;;16.37;;
17850;SDS011;9051;51.548;14.348;2022-12-20T08:40:30;25.23;;;14.67;;
17850;SDS011;9051;51.548;14.348;2022-12-20T08:43:03;29.13;;;15.70;;
17850;SDS011;9051;51.548;14.348;2022-12-20T08:45:35;26.50;;;15.40;;
17850;SDS011;9051;51.548;14.348;2022-12-20T08:48:08;25.63;;;15.60;;
17850;SDS011;9051;51.548;14.348;2022-12-20T08:50:40;29.60;;;16.37;;
17850;SDS011;9051;51.548;14.348;2022-12-20T08:53:12;25.07;;;15.33;;
17850;SDS011;9051;51.548;14.348;2022-12-20T08:55:44;29.97;;;16.20;;
17850;SDS011;9051;51.548;14.348;2022-12-20T08:58:17;27.90;;;15.77;;
17850;SDS011;9051;51.548;14.348;2022-12-20T09:00:50;27.40;;;15.87;;
17850;SDS011;9051;51.548;14.348;2022-12-20T09:03:21;28.10;;;16.17;;
17850;SDS011;9051;51.548;14.348;2022-12-20T09:05:53;31.53;;;17.37;;
17850;SDS011;9051;51.548;14.348;2022-12-20T09:08:26;28.73;;;15.87;;
17850;SDS011;9051;51.548;14.348;2022-12-20T09:11:02;29.93;;;16.17;;
17850;SDS011;9051;51.548;14.348;2022-12-20T09:13:36;29.93;;;16.90;;
17850;SDS011;9051;51.548;14.348;2022-12-20T09:16:08;27.13;;;16.13;;
17850;SDS011;9051;51.548;14.348;2022-12-20T09:18:41;28.83;;;15.80;;
17850;SDS011;9051;51.548;14.348;2022-12-20T09:21:13;28.30;;;16.63;;
17850;SDS011;9051;51.548;14.348;2022-12-20T09:23:45;29.63;;;16.27;;
17850;SDS011;9051;51.548;14.348;2022-12-20T09:26:18;29.23;;;16.70;;
17850;SDS011;9051;51.548;14.348;2022-12-20T09:28:52;30.47;;;16.93;;
17850;SDS011;9051;51.548;14.348;2022-12-20T09:31:25;29.10;;;17.20;;
17850;SDS011;9051;51.548;14.348;2022-12-20T09:33:57;29.10;;;16.77;;
17850;SDS011;9051;51.548;14.348;2022-12-20T09:36:30;27.13;;;16.40;;
17850;SDS011;9051;51.548;14.348;2022-12-20T09:39:02;27.70;;;16.50;;
17850;SDS011;9051;51.548;14.348;2022-12-20T09:41:36;27.00;;;15.63;;
17850;SDS011;9051;51.548;14.348;2022-12-20T09:44:13;30.07;;;16.60;;
17850;SDS011;9051;51.548;14.348;2022-12-20T09:46:50;28.63;;;16.50;;
17850;SDS011;9051;51.548;14.348;2022-12-20T09:49:26;29.20;;;16.57;;
17850;SDS011;9051;51.548;14.348;2022-12-20T09:52:17;27.57;;;16.17;;
17850;SDS011;9051;51.548;14.348;2022-12-20T09:55:09;30.93;;;16.87;;
17850;SDS011;9051;51.548;14.348;2022-12-20T09:57:53;29.83;;;16.10;;
17850;SDS011;9051;51.548;14.348;2022-12-20T10:00:40;29.87;;;16.50;;
17850;SDS011;9051;51.548;14.348;2022-12-20T10:03:17;29.77;;;16.43;;
17850;SDS011;9051;51.548;14.348;2022-12-20T10:05:51;26.53;;;15.40;;
17850;SDS011;9051;51.548;14.348;2022-12-20T10:08:32;28.10;;;16.17;;
17850;SDS011;9051;51.548;14.348;2022-12-20T10:11:16;27.73;;;16.17;;
17850;SDS011;9051;51.548;14.348;2022-12-20T10:14:10;29.47;;;16.20;;
17850;SDS011;9051;51.548;14.348;2022-12-20T10:16:54;27.63;;;15.67;;
17850;SDS011;9051;51.548;14.348;2022-12-20T10:19:34;29.00;;;16.07;;
17850;SDS011;9051;51.548;14.348;2022-12-20T10:22:22;27.93;;;15.50;;
17850;SDS011;9051;51.548;14.348;2022-12-20T10:24:58;28.60;;;16.03;;
17850;SDS011;9051;51.548;14.348;2022-12-20T10:27:41;30.67;;;16.13;;
17850;SDS011;9051;51.548;14.348;2022-12-20T10:30:15;27.63;;;15.90;;
17850;SDS011;9051;51.548;14.348;2022-12-20T10:32:50;27.27;;;16.00;;
17850;SDS011;9051;51.548;14.348;2022-12-20T10:35:24;26.30;;;15.50;;
17850;SDS011;9051;51.548;14.348;2022-12-20T10:37:59;26.27;;;15.93;;
17850;SDS011;9051;51.548;14.348;2022-12-20T10:40:34;30.77;;;16.93;;
17850;SDS011;9051;51.548;14.348;2022-12-20T10:43:12;28.27;;;16.33;;
17850;SDS011;9051;51.548;14.348;2022-12-20T10:45:54;28.13;;;16.77;;
17850;SDS011;9051;51.548;14.348;2022-12-20T10:48:31;27.00;;;15.93;;
17850;SDS011;9051;51.548;14.348;2022-12-20T10:51:12;27.90;;;16.43;;
17850;SDS011;9051;51.548;14.348;2022-12-20T10:53:51;28.60;;;15.90;;
17850;SDS011;9051;51.548;14.348;2022-12-20T10:56:25;30.07;;;16.63;;
17850;SDS011;9051;51.548;14.348;2022-12-20T10:58:59;26.33;;;15.93;;
17850;SDS011;9051;51.548;14.348;2022-12-20T11:01:33;29.23;;;17.47;;
17850;SDS011;9051;51.548;14.348;2022-12-20T11:04:19;28.10;;;15.37;;
17850;SDS011;9051;51.548;14.348;2022-12-20T11:06:57;28.67;;;16.60;;
17850;SDS011;9051;51.548;14.348;2022-12-20T11:09:31;29.93;;;16.77;;
17850;SDS011;9051;51.548;14.348;2022-12-20T11:12:06;31.67;;;17.60;;
17850;SDS011;9051;51.548;14.348;2022-12-20T11:14:42;29.57;;;17.23;;
17850;SDS011;9051;51.548;14.348;2022-12-20T11:17:20;28.00;;;15.73;;
17850;SDS011;9051;51.548;14.348;2022-12-20T11:20:21;27.47;;;16.47;;
17850;SDS011;9051;51.548;14.348;2022-12-20T11:23:02;30.40;;;16.53;;
17850;SDS011;9051;51.548;14.348;2022-12-20T11:25:49;29.43;;;16.63;;
17850;SDS011;9051;51.548;14.348;2022-12-20T11:28:36;29.17;;;16.77;;
17850;SDS011;9051;51.548;14.348;2022-12-20T11:31:19;30.87;;;17.27;;
17850;SDS011;9051;51.548;14.348;2022-12-20T11:34:01;26.67;;;16.57;;
17850;SDS011;9051;51.548;14.348;2022-12-20T11:36:50;33.20;;;16.43;;
17850;SDS011;9051;51.548;14.348;2022-12-20T11:39:33;28.20;;;16.80;;
17850;SDS011;9051;51.548;14.348;2022-12-20T11:42:15;28.47;;;17.07;;
17850;SDS011;9051;51.548;14.348;2022-12-20T11:44:57;28.77;;;17.40;;
17850;SDS011;9051;51.548;14.348;2022-12-20T11:47:39;32.30;;;17.90;;
17850;SDS011;9051;51.548;14.348;2022-12-20T11:50:39;29.70;;;16.97;;
17850;SDS011;9051;51.548;14.348;2022-12-20T11:53:22;32.23;;;17.73;;
17850;SDS011;9051;51.548;14.348;2022-12-20T11:55:59;31.63;;;17.40;;
17850;SDS011;9051;51.548;14.348;2022-12-20T11:58:39;33.03;;;18.43;;
17850;SDS011;9051;51.548;14.348;2022-12-20T12:01:19;31.33;;;18.17;;
17850;SDS011;9051;51.548;14.348;2022-12-20T12:03:58;37.57;;;19.80;;
17850;SDS011;9051;51.548;14.348;2022-12-20T12:06:35;34.70;;;18.17;;
17850;SDS011;9051;51.548;14.348;2022-12-20T12:09:14;35.37;;;17.97;;
17850;SDS011;9051;51.548;14.348;2022-12-20T12:11:52;32.87;;;17.63;;
17850;SDS011;9051;51.548;14.348;2022-12-20T12:14:30;30.80;;;17.67;;
17850;SDS011;9051;51.548;14.348;2022-12-20T12:17:25;31.10;;;16.93;;
17850;SDS011;9051;51.548;14.348;2022-12-20T12:23:04;33.10;;;18.03;;
17850;SDS011;9051;51.548;14.348;2022-12-20T12:25:45;29.87;;;16.40;;
17850;SDS011;9051;51.548;14.348;2022-12-20T12:28:17;30.03;;;16.93;;
17850;SDS011;9051;51.548;14.348;2022-12-20T12:30:52;29.00;;;16.77;;
17850;SDS011;9051;51.548;14.348;2022-12-20T12:33:29;27.13;;;16.93;;
17850;SDS011;9051;51.548;14.348;2022-12-20T12:36:10;27.63;;;16.03;;
17850;SDS011;9051;51.548;14.348;2022-12-20T12:42:08;29.63;;;15.93;;
17850;SDS011;9051;51.548;14.348;2022-12-20T12:44:51;29.53;;;16.73;;
17850;SDS011;9051;51.548;14.348;2022-12-20T12:47:28;29.57;;;17.10;;
17850;SDS011;9051;51.548;14.348;2022-12-20T12:51:24;28.40;;;16.37;;
17850;SDS011;9051;51.548;14.348;2022-12-20T12:54:11;28.73;;;16.90;;
17850;SDS011;9051;51.548;14.348;2022-12-20T12:56:48;29.27;;;16.70;;
17850;SDS011;9051;51.548;14.348;2022-12-20T13:02:21;30.20;;;16.67;;
17850;SDS011;9051;51.548;14.348;2022-12-20T13:08:06;30.10;;;16.70;;
17850;SDS011;9051;51.548;14.348;2022-12-20T13:10:57;28.00;;;16.53;;
17850;SDS011;9051;51.548;14.348;2022-12-20T13:13:31;30.80;;;16.80;;
17850;SDS011;9051;51.548;14.348;2022-12-20T13:16:08;28.17;;;17.10;;
17850;SDS011;9051;51.548;14.348;2022-12-20T13:18:54;31.93;;;16.80;;
17850;SDS011;9051;51.548;14.348;2022-12-20T13:21:35;28.60;;;16.50;;
17850;SDS011;9051;51.548;14.348;2022-12-20T13:27:15;31.37;;;16.27;;
17850;SDS011;9051;51.548;14.348;2022-12-20T13:39:03;27.93;;;16.33;;
17850;SDS011;9051;51.548;14.348;2022-12-20T13:41:51;31.33;;;16.83;;
17850;SDS011;9051;51.548;14.348;2022-12-20T13:44:40;25.93;;;16.20;;
17850;SDS011;9051;51.548;14.348;2022-12-20T13:53:17;30.37;;;15.73;;
17850;SDS011;9051;51.548;14.348;2022-12-20T13:55:50;32.33;;;16.37;;
17850;SDS011;9051;51.548;14.348;2022-12-20T13:58:22;27.30;;;16.17;;
17850;SDS011;9051;51.548;14.348;2022-12-20T14:01:02;30.77;;;16.40;;
17850;SDS011;9051;51.548;14.348;2022-12-20T14:03:39;29.57;;;16.40;;
17850;SDS011;9051;51.548;14.348;2022-12-20T14:06:12;31.83;;;16.73;;
17850;SDS011;9051;51.548;14.348;2022-12-20T14:08:47;30.23;;;17.43;;
17850;SDS011;9051;51.548;14.348;2022-12-20T14:11:22;33.63;;;17.57;;
17850;SDS011;9051;51.548;14.348;2022-12-20T14:13:56;28.87;;;17.20;;
17850;SDS011;9051;51.548;14.348;2022-12-20T14:16:30;32.90;;;17.17;;
17850;SDS011;9051;51.548;14.348;2022-12-20T14:19:02;29.77;;;17.63;;
17850;SDS011;9051;51.548;14.348;2022-12-20T14:21:36;33.80;;;17.47;;
17850;SDS011;9051;51.548;14.348;2022-12-20T14:24:12;32.57;;;17.53;;
17850;SDS011;9051;51.548;14.348;2022-12-20T14:26:47;32.40;;;17.57;;
17850;SDS011;9051;51.548;14.348;2022-12-20T14:29:23;31.37;;;17.33;;
17850;SDS011;9051;51.548;14.348;2022-12-20T14:32:00;31.13;;;16.93;;
17850;SDS011;9051;51.548;14.348;2022-12-20T14:34:32;31.00;;;17.07;;
17850;SDS011;9051;51.548;14.348;2022-12-20T14:37:25;33.47;;;17.23;;
17850;SDS011;9051;51.548;14.348;2022-12-20T14:40:02;34.23;;;17.67;;
17850;SDS011;9051;51.548;14.348;2022-12-20T14:42:52;32.47;;;17.27;;
17850;SDS011;9051;51.548;14.348;2022-12-20T14:45:25;31.10;;;17.17;;
17850;SDS011;9051;51.548;14.348;2022-12-20T14:47:58;33.93;;;17.67;;
17850;SDS011;9051;51.548;14.348;2022-12-20T14:50:34;31.13;;;17.23;;
17850;SDS011;9051;51.548;14.348;2022-12-20T14:53:10;31.43;;;17.23;;
17850;SDS011;9051;51.548;14.348;2022-12-20T14:55:49;36.30;;;18.43;;
17850;SDS011;9051;51.548;14.348;2022-12-20T14:58:22;37.40;;;19.50;;
17850;SDS011;9051;51.548;14.348;2022-12-20T15:00:57;36.23;;;17.90;;
17850;SDS011;9051;51.548;14.348;2022-12-20T15:03:30;35.33;;;17.93;;
17850;SDS011;9051;51.548;14.348;2022-12-20T15:06:02;35.83;;;19.43;;
17850;SDS011;9051;51.548;14.348;2022-12-20T15:08:36;36.30;;;20.03;;
17850;SDS011;9051;51.548;14.348;2022-12-20T15:11:13;39.43;;;20.87;;
17850;SDS011;9051;51.548;14.348;2022-12-20T15:13:51;34.57;;;18.90;;
17850;SDS011;9051;51.548;14.348;2022-12-20T15:16:25;34.30;;;18.20;;
17850;SDS011;9051;51.548;14.348;2022-12-20T15:18:59;35.80;;;18.87;;
17850;SDS011;9051;51.548;14.348;2022-12-20T15:21:33;36.60;;;19.27;;
17850;SDS011;9051;51.548;14.348;2022-12-20T15:24:08;34.87;;;18.10;;
17850;SDS011;9051;51.548;14.348;2022-12-20T15:26:44;34.67;;;18.37;;
17850;SDS011;9051;51.548;14.348;2022-12-20T15:29:16;36.23;;;19.33;;
17850;SDS011;9051;51.548;14.348;2022-12-20T15:31:50;35.17;;;18.93;;
17850;SDS011;9051;51.548;14.348;2022-12-20T15:34:25;36.07;;;18.33;;
17850;SDS011;9051;51.548;14.348;2022-12-20T15:37:00;38.70;;;19.70;;
17850;SDS011;9051;51.548;14.348;2022-12-20T15:39:34;33.37;;;18.90;;
17850;SDS011;9051;51.548;14.348;2022-12-20T15:42:10;34.67;;;19.27;;
17850;SDS011;9051;51.548;14.348;2022-12-20T15:44:45;38.90;;;19.30;;
17850;SDS011;9051;51.548;14.348;2022-12-20T15:47:17;34.03;;;19.13;;